createdAt,value
2024-04-11T00:00:25.188Z,5.43
2024-04-11T00:02:53.378Z,5.80
2024-04-11T00:05:21.542Z,5.97
2024-04-11T00:07:48.383Z,5.23
2024-04-11T00:10:15.240Z,5.37
2024-04-11T00:12:42.097Z,5.83
2024-04-11T00:15:09.349Z,6.10
2024-04-11T00:17:36.299Z,5.53
2024-04-11T00:20:05.079Z,5.03
2024-04-11T00:22:32.246Z,5.30
2024-04-11T00:24:59.165Z,5.33
2024-04-11T00:27:26.237Z,6.07
2024-04-11T00:29:53.139Z,5.50
2024-04-11T00:32:20.076Z,5.20
2024-04-11T00:34:47.050Z,5.53
2024-04-11T00:37:14.203Z,5.13
2024-04-11T00:39:40.886Z,5.53
2024-04-11T00:42:08.667Z,5.80
2024-04-11T00:44:38.686Z,4.70
2024-04-11T00:47:10.708Z,4.50
2024-04-11T00:49:39.536Z,4.93
2024-04-11T00:52:08.424Z,3.93
2024-04-11T00:54:36.972Z,4.20
2024-04-11T00:57:08.908Z,4.10
2024-04-11T00:59:41.939Z,4.23
2024-04-11T01:02:13.418Z,4.57
2024-04-11T01:04:40.693Z,4.73
2024-04-11T01:07:09.624Z,4.17
2024-04-11T01:09:46.042Z,4.07
2024-04-11T01:12:14.870Z,3.50
2024-04-11T01:14:45.461Z,3.40
2024-04-11T01:17:17.367Z,4.30
2024-04-11T01:19:51.225Z,4.00
2024-04-11T01:22:19.982Z,4.77
2024-04-11T01:24:48.164Z,3.50
2024-04-11T01:27:18.416Z,3.97
2024-04-11T01:29:45.433Z,3.27
2024-04-11T01:32:12.371Z,3.10
2024-04-11T01:34:40.068Z,3.07
2024-04-11T01:37:07.183Z,3.50
2024-04-11T01:39:33.964Z,4.60
2024-04-11T01:42:00.989Z,3.57
2024-04-11T01:44:29.840Z,3.23
2024-04-11T01:46:57.171Z,3.30
2024-04-11T01:49:23.943Z,3.43
2024-04-11T01:51:50.792Z,3.50
2024-04-11T01:54:17.686Z,5.97
2024-04-11T01:56:44.427Z,2.97
2024-04-11T01:59:11.196Z,3.00
2024-04-11T02:01:39.091Z,3.00
2024-04-11T02:04:07.447Z,4.27
2024-04-11T02:06:38.414Z,3.03
2024-04-11T02:09:16.948Z,2.83
2024-04-11T02:11:48.609Z,3.07
2024-04-11T02:14:15.806Z,2.80
2024-04-11T02:16:42.568Z,3.57
2024-04-11T02:19:09.489Z,3.33
2024-04-11T02:21:39.413Z,3.33
2024-04-11T02:24:08.067Z,3.50
2024-04-11T02:26:36.109Z,3.03
2024-04-11T02:29:03.851Z,2.67
2024-04-11T02:31:30.732Z,2.87
2024-04-11T02:34:00.768Z,2.80
2024-04-11T02:36:34.138Z,3.03
2024-04-11T02:39:01.663Z,3.10
2024-04-11T02:41:29.325Z,2.93
2024-04-11T02:43:56.642Z,2.97
2024-04-11T02:46:26.393Z,2.70
2024-04-11T02:48:54.853Z,2.40
2024-04-11T02:51:24.290Z,2.27
2024-04-11T02:53:51.361Z,3.33
2024-04-11T02:56:18.353Z,2.30
2024-04-11T02:58:45.137Z,2.93
2024-04-11T03:01:15.449Z,2.53
2024-04-11T03:03:42.787Z,2.77
2024-04-11T03:06:11.379Z,2.73
2024-04-11T03:08:38.258Z,2.20
2024-04-11T03:11:05.052Z,2.90
2024-04-11T03:13:31.791Z,2.87
2024-04-11T03:15:59.393Z,2.97
2024-04-11T03:18:26.347Z,3.50
2024-04-11T03:20:57.857Z,3.43
2024-04-11T03:23:25.913Z,2.70
2024-04-11T03:25:53.095Z,2.10
2024-04-11T03:28:20.999Z,2.67
2024-04-11T03:30:58.866Z,2.57
2024-04-11T03:33:27.528Z,2.73
2024-04-11T03:35:59.452Z,2.90
2024-04-11T03:38:26.993Z,2.50
2024-04-11T03:41:09.148Z,2.60
2024-04-11T03:43:36.202Z,2.70
2024-04-11T03:46:22.719Z,2.40
2024-04-11T03:48:57.506Z,2.53
2024-04-11T03:51:31.023Z,2.50
2024-04-11T03:54:00.136Z,2.10
2024-04-11T03:56:29.238Z,3.07
2024-04-11T03:59:00.056Z,2.40
2024-04-11T04:01:28.742Z,2.70
2024-04-11T04:04:06.136Z,2.40
2024-04-11T04:06:35.424Z,2.20
2024-04-11T04:09:09.094Z,2.53
2024-04-11T04:11:39.504Z,2.50
2024-04-11T04:14:15.025Z,2.50
2024-04-11T04:16:43.599Z,2.40
2024-04-11T04:19:11.013Z,3.17
2024-04-11T04:21:37.825Z,2.10
2024-04-11T04:24:07.834Z,2.63
2024-04-11T04:26:35.531Z,2.63
2024-04-11T04:29:02.324Z,2.03
2024-04-11T04:31:32.150Z,2.60
2024-04-11T04:34:01.463Z,2.53
2024-04-11T04:36:34.385Z,2.30
2024-04-11T04:39:06.052Z,2.40
2024-04-11T04:41:33.932Z,2.57
2024-04-11T04:44:03.554Z,2.03
2024-04-11T04:46:31.981Z,2.20
2024-04-11T04:49:01.683Z,2.00
2024-04-11T04:51:30.150Z,1.87
2024-04-11T04:53:58.391Z,2.63
2024-04-11T04:56:30.061Z,2.30
2024-04-11T04:58:57.468Z,2.20
2024-04-11T05:01:25.306Z,2.40
2024-04-11T05:03:52.765Z,2.63
2024-04-11T05:06:19.994Z,1.97
2024-04-11T05:08:54.742Z,2.10
2024-04-11T05:11:23.635Z,3.10
2024-04-11T05:13:51.846Z,2.20
2024-04-11T05:16:22.533Z,2.30
2024-04-11T05:18:51.629Z,2.37
2024-04-11T05:21:25.736Z,1.90
2024-04-11T05:23:55.432Z,2.33
2024-04-11T05:26:26.398Z,1.80
2024-04-11T05:28:55.399Z,2.40
2024-04-11T05:31:29.136Z,1.70
2024-04-11T05:34:01.244Z,2.47
2024-04-11T05:36:30.396Z,1.27
2024-04-11T05:38:58.671Z,1.80
2024-04-11T05:41:26.965Z,2.40
2024-04-11T05:43:55.938Z,2.20
2024-04-11T05:46:23.889Z,1.80
2024-04-11T05:48:52.139Z,1.90
2024-04-11T05:51:20.229Z,2.03
2024-04-11T05:53:47.415Z,2.60
2024-04-11T05:56:16.906Z,2.00
2024-04-11T05:58:44.570Z,1.40
2024-04-11T06:01:17.324Z,1.83
2024-04-11T06:03:51.710Z,1.60
2024-04-11T06:06:21.257Z,1.70
2024-04-11T06:08:49.224Z,2.20
2024-04-11T06:11:19.487Z,1.60
2024-04-11T06:13:48.486Z,1.60
2024-04-11T06:16:16.377Z,1.70
2024-04-11T06:18:45.357Z,1.30
2024-04-11T06:21:19.911Z,2.00
2024-04-11T06:23:46.983Z,1.70
2024-04-11T06:26:15.918Z,1.67
2024-04-11T06:28:46.523Z,1.43
2024-04-11T06:31:16.089Z,1.47
2024-04-11T06:33:43.293Z,1.97
2024-04-11T06:36:12.371Z,1.70
2024-04-11T06:38:39.697Z,1.43
2024-04-11T06:41:09.787Z,1.83
2024-04-11T06:43:39.538Z,1.67
2024-04-11T06:46:08.232Z,1.60
2024-04-11T06:48:36.742Z,1.47
2024-04-11T06:51:08.637Z,1.73
2024-04-11T06:53:35.766Z,1.30
2024-04-11T06:56:09.020Z,1.73
2024-04-11T06:58:37.795Z,1.63
2024-04-11T07:01:05.916Z,1.60
2024-04-11T07:03:33.088Z,1.57
2024-04-11T07:06:11.599Z,1.80
2024-04-11T07:08:44.416Z,1.73
2024-04-11T07:11:20.610Z,1.87
2024-04-11T07:13:56.026Z,1.00
2024-04-11T07:16:27.641Z,1.70
2024-04-11T07:18:57.390Z,1.43
2024-04-11T07:21:29.411Z,2.10
2024-04-11T07:23:59.457Z,1.60
2024-04-11T07:26:31.646Z,1.07
2024-04-11T07:29:05.102Z,1.70
2024-04-11T07:31:34.518Z,1.30
2024-04-11T07:34:04.741Z,1.60
2024-04-11T07:36:34.111Z,1.67
2024-04-11T07:39:02.401Z,1.17
2024-04-11T07:41:34.280Z,1.03
2024-04-11T07:44:01.831Z,1.90
2024-04-11T07:46:42.885Z,1.30
2024-04-11T07:49:14.869Z,1.50
2024-04-11T07:51:43.189Z,1.23
2024-04-11T07:54:20.573Z,1.27
2024-04-11T07:56:52.539Z,1.43
2024-04-11T07:59:19.226Z,1.60
2024-04-11T08:01:46.011Z,1.47
2024-04-11T08:04:12.828Z,1.43
2024-04-11T08:06:40.483Z,1.63
2024-04-11T08:09:08.207Z,1.30
2024-04-11T08:11:38.202Z,2.10
2024-04-11T08:14:07.569Z,2.23
2024-04-11T08:16:34.889Z,1.80
2024-04-11T08:19:03.938Z,2.10
2024-04-11T08:21:34.615Z,1.40
2024-04-11T08:24:01.974Z,1.53
2024-04-11T08:26:30.549Z,1.83
2024-04-11T08:28:57.393Z,1.77
2024-04-11T08:31:31.622Z,1.67
2024-04-11T08:33:59.634Z,1.50
2024-04-11T08:36:27.794Z,1.73
2024-04-11T08:38:56.670Z,1.83
2024-04-11T08:41:23.480Z,1.90
2024-04-11T08:43:51.947Z,1.80
2024-04-11T08:46:18.805Z,2.47
2024-04-11T08:48:45.888Z,1.70
2024-04-11T08:51:21.133Z,1.93
2024-04-11T08:54:00.201Z,1.77
2024-04-11T08:56:30.748Z,2.27
2024-04-11T08:58:57.582Z,1.60
2024-04-11T09:01:25.028Z,2.30
2024-04-11T09:03:53.981Z,2.50
2024-04-11T09:06:25.734Z,1.63
2024-04-11T09:08:56.942Z,2.17
2024-04-11T09:11:28.153Z,2.97
2024-04-11T09:13:59.577Z,1.87
2024-04-11T09:16:29.809Z,1.53
2024-04-11T09:19:12.724Z,1.90
2024-04-11T09:21:47.146Z,1.70
2024-04-11T09:24:20.317Z,2.00
2024-04-11T09:26:48.538Z,2.03
2024-04-11T09:29:21.259Z,2.00
2024-04-11T09:31:50.639Z,2.10
2024-04-11T09:34:22.117Z,2.10
2024-04-11T09:36:51.410Z,1.87
2024-04-11T09:39:44.809Z,2.20
2024-04-11T09:42:21.745Z,2.10
2024-04-11T09:44:54.652Z,2.47
2024-04-11T09:47:36.174Z,2.17
2024-04-11T09:50:07.457Z,2.23
2024-04-11T09:52:42.781Z,1.73
2024-04-11T09:55:10.443Z,2.20
2024-04-11T09:57:39.867Z,1.80
2024-04-11T10:00:23.916Z,1.70
2024-04-11T10:02:56.504Z,2.13
2024-04-11T10:05:26.814Z,2.27
2024-04-11T10:07:59.304Z,2.30
2024-04-11T10:10:29.113Z,2.27
2024-04-11T10:13:04.802Z,2.17
2024-04-11T10:15:35.437Z,1.90
2024-04-11T10:18:10.994Z,2.40
2024-04-11T10:21:00.609Z,2.27
2024-04-11T10:23:30.359Z,1.77
2024-04-11T10:25:57.582Z,2.00
2024-04-11T10:28:39.809Z,2.40
2024-04-11T10:31:12.748Z,1.73
2024-04-11T10:33:54.806Z,2.07
2024-04-11T10:36:22.908Z,1.87
2024-04-11T10:38:59.253Z,2.50
2024-04-11T10:41:27.796Z,2.13
2024-04-11T10:43:56.952Z,2.77
2024-04-11T10:46:25.342Z,2.07
2024-04-11T10:48:56.364Z,2.00
2024-04-11T10:51:29.145Z,2.57
2024-04-11T10:54:10.763Z,2.20
2024-04-11T10:56:47.899Z,2.20
2024-04-11T10:59:24.223Z,1.93
2024-04-11T11:02:06.208Z,3.07
2024-04-11T11:04:35.095Z,2.03
2024-04-11T11:07:12.021Z,2.33
2024-04-11T11:09:46.798Z,2.07
2024-04-11T11:12:17.778Z,2.37
2024-04-11T11:14:44.933Z,2.03
2024-04-11T11:17:19.358Z,2.20
2024-04-11T11:19:51.556Z,2.47
2024-04-11T11:22:31.322Z,2.70
2024-04-11T11:25:02.238Z,2.57
2024-04-11T11:27:34.841Z,2.90
2024-04-11T11:30:07.284Z,2.80
2024-04-11T11:32:37.522Z,2.43
2024-04-11T11:35:10.596Z,2.57
2024-04-11T11:37:40.110Z,2.53
2024-04-11T11:40:27.339Z,2.90
2024-04-11T11:42:54.244Z,2.60
2024-04-11T11:45:30.204Z,3.00
2024-04-11T11:48:14.238Z,2.03
2024-04-11T11:50:41.537Z,2.80
2024-04-11T11:53:27.017Z,2.37
2024-04-11T11:56:04.699Z,2.50
2024-04-11T11:58:37.658Z,2.80
2024-04-11T12:01:20.976Z,3.30
2024-04-11T12:03:49.186Z,2.30
2024-04-11T12:06:16.105Z,2.77
2024-04-11T12:08:44.899Z,2.97
2024-04-11T12:11:11.917Z,3.07
2024-04-11T12:13:46.493Z,3.20
2024-04-11T12:16:19.440Z,2.67
2024-04-11T12:18:49.794Z,2.93
2024-04-11T12:21:27.605Z,3.40
2024-04-11T12:23:56.386Z,3.37
2024-04-11T12:26:23.451Z,3.23
2024-04-11T12:28:52.485Z,2.90
2024-04-11T12:31:23.353Z,3.20
2024-04-11T12:36:37.740Z,4.13
2024-04-11T12:39:14.085Z,3.50
2024-04-11T12:41:42.126Z,3.83
2024-04-11T12:44:12.814Z,3.80
2024-04-11T12:46:50.422Z,3.77
2024-04-11T12:49:21.596Z,4.07
2024-04-11T12:51:48.322Z,3.03
2024-04-11T12:54:17.251Z,3.87
2024-04-11T12:56:46.577Z,3.33
2024-04-11T12:59:29.412Z,2.97
2024-04-11T13:02:00.444Z,3.40
2024-04-11T13:04:33.731Z,3.87
2024-04-11T13:07:11.717Z,3.83
2024-04-11T13:09:56.556Z,3.10
2024-04-11T13:12:28.147Z,3.10
2024-04-11T13:15:11.348Z,3.47
2024-04-11T13:17:44.686Z,3.40
2024-04-11T13:20:15.068Z,3.60
2024-04-11T13:22:46.025Z,4.13
2024-04-11T13:25:22.678Z,3.70
2024-04-11T13:27:54.952Z,3.43
2024-04-11T13:30:22.455Z,3.80
2024-04-11T13:32:57.562Z,4.00
2024-04-11T13:35:38.324Z,3.30
2024-04-11T13:38:13.988Z,3.70
2024-04-11T13:41:12.814Z,4.23
2024-04-11T13:43:44.979Z,3.50
2024-04-11T13:46:13.033Z,4.23
2024-04-11T13:48:51.868Z,3.90
2024-04-11T13:51:31.807Z,3.77
2024-04-11T13:54:04.540Z,3.90
2024-04-11T13:56:31.924Z,5.10
2024-04-11T13:59:09.311Z,4.67
2024-04-11T14:01:51.918Z,4.80
2024-04-11T14:04:19.650Z,5.13
2024-04-11T14:06:52.342Z,4.67
2024-04-11T14:09:20.740Z,4.90
2024-04-11T14:11:48.954Z,4.60
2024-04-11T14:14:22.298Z,5.10
2024-04-11T14:16:53.718Z,4.70
2024-04-11T14:19:36.989Z,4.60
2024-04-11T14:22:23.276Z,5.10
2024-04-11T14:25:09.193Z,5.40
2024-04-11T14:27:39.694Z,6.17
2024-04-11T14:30:07.313Z,5.10
2024-04-11T14:32:52.711Z,5.30
2024-04-11T14:35:26.957Z,7.07
2024-04-11T14:37:57.475Z,5.60
2024-04-11T14:40:24.404Z,5.90
2024-04-11T14:42:54.525Z,5.30
2024-04-11T14:45:23.973Z,5.43
2024-04-11T14:47:52.626Z,5.67
2024-04-11T14:50:20.538Z,5.60
2024-04-11T14:52:53.167Z,5.03
2024-04-11T14:55:22.129Z,4.70
2024-04-11T14:57:49.612Z,5.10
2024-04-11T15:00:35.229Z,5.93
2024-04-11T15:03:02.506Z,6.57
2024-04-11T15:05:35.381Z,5.73
2024-04-11T15:08:05.052Z,6.03
2024-04-11T15:10:43.283Z,6.93
2024-04-11T15:13:10.950Z,7.30
2024-04-11T15:15:57.651Z,6.40
2024-04-11T15:18:29.150Z,7.03
2024-04-11T15:21:12.269Z,7.13
2024-04-11T15:23:44.073Z,6.17
2024-04-11T15:26:15.070Z,6.60
2024-04-11T15:28:48.876Z,5.43
2024-04-11T15:31:31.245Z,6.33
2024-04-11T15:33:59.178Z,5.97
2024-04-11T15:36:45.088Z,5.30
2024-04-11T15:39:17.560Z,5.80
2024-04-11T15:41:52.203Z,5.50
2024-04-11T15:44:19.541Z,5.40
2024-04-11T15:46:50.840Z,5.10
2024-04-11T15:49:19.909Z,4.90
2024-04-11T15:51:52.444Z,5.33
2024-04-11T15:54:31.618Z,5.23
2024-04-11T15:56:58.447Z,5.30
2024-04-11T15:59:28.531Z,4.87
2024-04-11T16:01:59.034Z,6.70
2024-04-11T16:04:25.952Z,5.50
2024-04-11T16:06:59.816Z,5.87
2024-04-11T16:09:38.446Z,6.00
2024-04-11T16:12:11.180Z,5.20
2024-04-11T16:14:44.429Z,6.30
2024-04-11T16:17:14.667Z,5.77
2024-04-11T16:19:42.473Z,5.83
2024-04-11T16:22:12.617Z,5.43
2024-04-11T16:24:53.711Z,6.70
2024-04-11T16:27:35.428Z,5.83
2024-04-11T16:30:12.329Z,5.90
2024-04-11T16:32:42.647Z,6.10
2024-04-11T16:35:09.943Z,7.07
2024-04-11T16:37:37.047Z,5.97
2024-04-11T16:40:05.228Z,6.30
2024-04-11T16:42:35.632Z,6.50
2024-04-11T16:45:06.607Z,7.30
2024-04-11T16:47:37.604Z,6.50
2024-04-11T16:50:05.492Z,6.23
2024-04-11T16:52:33.206Z,7.07
2024-04-11T16:55:24.423Z,7.20
2024-04-11T16:57:52.731Z,7.20
2024-04-11T17:00:28.626Z,6.60
2024-04-11T17:03:01.341Z,7.33
2024-04-11T17:05:29.738Z,7.30
2024-04-11T17:07:57.403Z,7.13
2024-04-11T17:10:34.849Z,7.60
2024-04-11T17:13:02.377Z,7.30
2024-04-11T17:15:31.634Z,7.70
2024-04-11T17:18:07.304Z,7.70
2024-04-11T17:20:35.185Z,8.40
2024-04-11T17:23:01.864Z,10.43
2024-04-11T17:25:40.400Z,9.60
2024-04-11T17:28:20.975Z,10.67
2024-04-11T17:30:57.290Z,10.70
2024-04-11T17:33:36.920Z,10.30
2024-04-11T17:36:25.110Z,10.50
2024-04-11T17:39:23.370Z,10.43
2024-04-11T17:41:59.886Z,11.60
2024-04-11T17:44:45.994Z,11.00
2024-04-11T17:47:21.993Z,10.10
2024-04-11T17:50:00.040Z,12.00
2024-04-11T17:52:46.069Z,11.53
2024-04-11T17:55:25.840Z,11.97
2024-04-11T17:57:53.157Z,12.40
2024-04-11T18:00:27.200Z,12.60
2024-04-11T18:02:55.051Z,13.90
2024-04-11T18:05:22.836Z,13.97
2024-04-11T18:07:53.463Z,12.73
2024-04-11T18:10:26.250Z,13.80
2024-04-11T18:12:54.492Z,16.77
2024-04-11T18:15:21.322Z,15.13
2024-04-11T18:17:55.421Z,15.13
2024-04-11T18:20:28.453Z,15.40
2024-04-11T18:22:55.243Z,17.00
2024-04-11T18:25:30.367Z,16.83
2024-04-11T18:28:12.787Z,16.37
2024-04-11T18:30:55.833Z,17.37
2024-04-11T18:33:24.421Z,17.67
2024-04-11T18:35:55.881Z,19.80
2024-04-11T18:38:28.762Z,18.40
2024-04-11T18:40:55.971Z,19.37
2024-04-11T18:43:23.940Z,19.03
2024-04-11T18:45:55.938Z,19.40
2024-04-11T18:48:39.222Z,19.17
2024-04-11T18:51:07.047Z,18.67
2024-04-11T18:53:36.543Z,19.60
2024-04-11T18:56:10.496Z,19.90
2024-04-11T18:58:40.726Z,19.40
2024-04-11T19:01:16.564Z,21.30
2024-04-11T19:03:43.647Z,21.00
2024-04-11T19:06:17.886Z,20.33
2024-04-11T19:08:49.437Z,20.47
2024-04-11T19:11:21.668Z,20.50
2024-04-11T19:13:56.202Z,19.50
2024-04-11T19:16:25.800Z,19.37
2024-04-11T19:18:57.907Z,19.90
2024-04-11T19:21:25.152Z,20.83
2024-04-11T19:24:07.742Z,19.50
2024-04-11T19:26:39.500Z,18.57
2024-04-11T19:29:08.960Z,17.37
2024-04-11T19:31:50.195Z,16.70
2024-04-11T19:34:21.280Z,16.73
2024-04-11T19:36:49.548Z,16.23
2024-04-11T19:39:20.610Z,17.17
2024-04-11T19:41:50.648Z,16.07
2024-04-11T19:44:19.103Z,17.40
2024-04-11T19:46:45.892Z,17.10
2024-04-11T19:49:25.496Z,17.30
2024-04-11T19:51:58.855Z,17.23
2024-04-11T19:54:26.656Z,17.50
2024-04-11T19:57:03.527Z,17.30
2024-04-11T19:59:33.589Z,18.70
2024-04-11T20:02:09.580Z,19.20
2024-04-11T20:04:43.078Z,18.43
2024-04-11T20:07:10.722Z,19.37
2024-04-11T20:09:39.461Z,18.57
2024-04-11T20:12:09.059Z,19.53
2024-04-11T20:14:39.853Z,18.60
2024-04-11T20:17:27.736Z,18.40
2024-04-11T20:20:00.595Z,18.53
2024-04-11T20:22:33.491Z,19.40
2024-04-11T20:25:00.406Z,16.03
2024-04-11T20:27:35.741Z,15.93
2024-04-11T20:30:15.625Z,18.07
2024-04-11T20:32:45.579Z,16.80
2024-04-11T20:35:42.440Z,16.90
2024-04-11T20:38:22.375Z,17.60
2024-04-11T20:41:04.658Z,15.60
2024-04-11T20:43:58.665Z,17.13
2024-04-11T20:46:31.232Z,16.53
2024-04-11T20:49:07.302Z,15.83
2024-04-11T20:51:52.855Z,16.53
2024-04-11T20:54:38.664Z,16.63
2024-04-11T20:57:24.070Z,16.27
2024-04-11T21:00:09.522Z,16.27
2024-04-11T21:02:55.076Z,14.87
2024-04-11T21:05:41.990Z,16.20
2024-04-11T21:08:28.066Z,16.90
2024-04-11T21:11:15.070Z,16.13
2024-04-11T21:14:00.243Z,15.70
2024-04-11T21:16:46.106Z,15.90
2024-04-11T21:19:31.599Z,16.60
2024-04-11T21:22:17.055Z,16.10
2024-04-11T21:25:07.098Z,17.60
2024-04-11T21:27:52.084Z,16.00
2024-04-11T21:30:37.556Z,15.07
2024-04-11T21:33:23.705Z,15.27
2024-04-11T21:35:54.666Z,16.43
2024-04-11T21:38:24.409Z,16.63
2024-04-11T21:40:51.220Z,15.63
2024-04-11T21:43:21.893Z,14.60
2024-04-11T21:45:58.951Z,16.90
2024-04-11T21:48:30.390Z,14.80
2024-04-11T21:50:57.194Z,15.90
2024-04-11T21:53:23.920Z,13.70
2024-04-11T21:55:50.962Z,14.53
2024-04-11T21:58:20.166Z,14.90
2024-04-11T22:01:02.695Z,14.47
2024-04-11T22:03:30.687Z,15.50
2024-04-11T22:05:57.715Z,15.80
2024-04-11T22:08:26.297Z,14.27
2024-04-11T22:10:54.390Z,13.80
2024-04-11T22:13:23.230Z,14.90
2024-04-11T22:15:54.106Z,14.80
2024-04-11T22:18:31.865Z,15.77
2024-04-11T22:21:16.061Z,14.53
2024-04-11T22:23:46.555Z,15.30
2024-04-11T22:26:19.269Z,14.53
2024-04-11T22:28:49.642Z,16.23
2024-04-11T22:31:16.530Z,15.57
2024-04-11T22:33:44.962Z,17.70
2024-04-11T22:36:29.146Z,16.70
2024-04-11T22:39:01.883Z,17.60
2024-04-11T22:41:31.792Z,17.20
2024-04-11T22:43:59.763Z,17.47
2024-04-11T22:46:38.333Z,19.23
2024-04-11T22:49:22.611Z,17.90
2024-04-11T22:51:55.765Z,20.57
2024-04-11T22:54:23.809Z,17.53
2024-04-11T22:56:52.061Z,19.87
2024-04-11T22:59:35.875Z,19.80
2024-04-11T23:02:14.777Z,21.40
2024-04-11T23:05:07.330Z,20.03
2024-04-11T23:07:34.763Z,20.77
2024-04-11T23:10:11.106Z,20.20
2024-04-11T23:12:38.569Z,22.00
2024-04-11T23:15:12.575Z,21.07
2024-04-11T23:17:56.319Z,21.70
2024-04-11T23:20:30.082Z,19.67
2024-04-11T23:23:17.977Z,21.87
2024-04-11T23:25:51.411Z,22.80
2024-04-11T23:28:27.923Z,22.97
2024-04-11T23:30:57.585Z,21.77
2024-04-11T23:33:30.315Z,22.57
2024-04-11T23:36:06.117Z,20.80
2024-04-11T23:38:36.089Z,21.40
2024-04-11T23:41:07.785Z,21.53
2024-04-11T23:43:52.613Z,22.30
2024-04-11T23:46:32.010Z,23.40
2024-04-11T23:49:07.564Z,23.57
2024-04-11T23:51:47.390Z,22.87
2024-04-11T23:54:20.018Z,22.97
2024-04-11T23:56:48.994Z,22.07
2024-04-11T23:59:17.035Z,23.40
